createdAt,value
2019-05-05T00:01:46.665Z,7.40
2019-05-05T00:04:48.069Z,5.27
2019-05-05T00:07:22.236Z,4.50
2019-05-05T00:09:52.426Z,4.97
2019-05-05T00:12:56.722Z,4.63
2019-05-05T00:15:45.042Z,5.00
2019-05-05T00:18:16.504Z,5.00
2019-05-05T00:20:46.620Z,4.27
2019-05-05T00:23:17.051Z,6.33
2019-05-05T00:25:47.171Z,6.53
2019-05-05T00:28:17.242Z,5.73
2019-05-05T00:30:47.703Z,6.17
2019-05-05T00:33:17.488Z,4.87
2019-05-05T00:35:47.512Z,4.93
2019-05-05T00:38:18.051Z,5.63
2019-05-05T00:40:49.502Z,5.27
2019-05-05T00:43:19.579Z,5.37
2019-05-05T00:45:51.625Z,7.03
2019-05-05T00:48:29.582Z,5.17
2019-05-05T00:50:59.005Z,6.33
2019-05-05T00:53:29.355Z,5.60
2019-05-05T00:55:59.390Z,5.77
2019-05-05T00:58:31.313Z,6.33
2019-05-05T01:01:26.381Z,4.80
2019-05-05T01:03:56.766Z,4.47
2019-05-05T01:06:28.684Z,5.60
2019-05-05T01:08:58.639Z,4.07
2019-05-05T01:11:29.161Z,5.03
2019-05-05T01:13:58.696Z,6.60
2019-05-05T01:16:28.770Z,5.63
2019-05-05T01:19:00.009Z,5.10
2019-05-05T01:21:30.205Z,4.93
2019-05-05T01:24:00.531Z,5.73
2019-05-05T01:26:30.649Z,5.33
2019-05-05T01:29:02.285Z,6.67
2019-05-05T01:31:34.638Z,6.93
2019-05-05T01:34:24.432Z,6.37
2019-05-05T01:37:01.200Z,5.43
2019-05-05T01:39:50.056Z,6.97
2019-05-05T01:42:20.080Z,6.13
2019-05-05T01:44:50.863Z,6.20
2019-05-05T01:47:21.267Z,6.87
2019-05-05T01:49:51.403Z,6.83
2019-05-05T01:52:21.556Z,6.17
2019-05-05T01:54:52.126Z,5.37
2019-05-05T01:57:22.451Z,5.30
2019-05-05T01:59:52.634Z,5.53
2019-05-05T02:02:24.926Z,5.50
2019-05-05T02:04:55.888Z,4.80
2019-05-05T02:07:26.033Z,6.13
2019-05-05T02:09:56.635Z,5.23
2019-05-05T02:12:27.790Z,5.87
2019-05-05T02:14:57.879Z,5.30
2019-05-05T02:17:28.275Z,5.73
2019-05-05T02:19:58.631Z,6.50
2019-05-05T02:22:28.764Z,5.60
2019-05-05T02:24:59.151Z,6.13
2019-05-05T02:27:29.562Z,6.97
2019-05-05T02:30:21.435Z,6.87
2019-05-05T02:32:55.893Z,6.87
2019-05-05T02:35:26.246Z,7.17
2019-05-05T02:37:56.316Z,7.70
2019-05-05T02:40:27.368Z,6.90
2019-05-05T02:42:57.801Z,6.63
2019-05-05T02:45:51.079Z,7.57
2019-05-05T02:48:24.791Z,8.30
2019-05-05T02:51:02.009Z,7.30
2019-05-05T02:53:34.231Z,8.23
2019-05-05T02:56:06.979Z,8.63
2019-05-05T02:58:38.649Z,8.30
2019-05-05T03:01:28.704Z,9.13
2019-05-05T03:04:01.202Z,10.07
2019-05-05T03:06:31.639Z,9.03
2019-05-05T03:09:04.458Z,9.33
2019-05-05T03:11:36.564Z,9.37
2019-05-05T03:14:09.066Z,9.83
2019-05-05T03:16:40.239Z,9.67
2019-05-05T03:19:14.110Z,10.10
2019-05-05T03:21:44.272Z,9.60
2019-05-05T03:24:16.062Z,12.27
2019-05-05T03:26:47.005Z,9.57
2019-05-05T03:29:21.233Z,13.97
2019-05-05T03:31:51.919Z,10.17
2019-05-05T03:34:24.575Z,11.20
2019-05-05T03:36:56.833Z,11.00
2019-05-05T03:39:29.741Z,9.90
2019-05-05T03:42:18.243Z,11.50
2019-05-05T03:44:54.506Z,10.60
2019-05-05T03:47:26.577Z,11.07
2019-05-05T03:49:57.233Z,11.03
2019-05-05T03:52:29.823Z,11.03
2019-05-05T03:55:00.387Z,12.50
2019-05-05T03:57:31.032Z,11.93
2019-05-05T04:00:04.134Z,11.73
2019-05-05T04:02:56.392Z,10.77
2019-05-05T04:05:31.113Z,14.07
2019-05-05T04:08:03.806Z,12.43
2019-05-05T04:10:33.995Z,11.60
2019-05-05T04:13:07.386Z,11.23
2019-05-05T04:15:39.042Z,12.13
2019-05-05T04:18:29.468Z,11.27
2019-05-05T04:20:59.610Z,10.40
2019-05-05T04:23:30.925Z,11.07
2019-05-05T04:26:01.139Z,11.43
2019-05-05T04:28:31.225Z,11.60
2019-05-05T04:31:01.362Z,11.30
2019-05-05T04:33:31.774Z,11.47
2019-05-05T04:36:03.880Z,11.30
2019-05-05T04:38:35.406Z,11.67
2019-05-05T04:41:06.988Z,10.93
2019-05-05T04:43:37.838Z,10.83
2019-05-05T04:46:07.577Z,11.40
2019-05-05T04:48:44.084Z,11.77
2019-05-05T04:51:19.492Z,10.40
2019-05-05T04:54:26.485Z,12.53
2019-05-05T04:56:56.997Z,10.00
2019-05-05T04:59:28.270Z,9.67
2019-05-05T05:02:04.011Z,11.63
2019-05-05T05:04:49.309Z,10.10
2019-05-05T05:07:19.995Z,10.20
2019-05-05T05:09:53.970Z,8.77
2019-05-05T05:12:24.156Z,8.83
2019-05-05T05:14:55.136Z,9.27
2019-05-05T05:17:33.839Z,8.07
2019-05-05T05:20:04.444Z,9.07
2019-05-05T05:22:34.827Z,8.93
2019-05-05T05:25:04.555Z,8.63
2019-05-05T05:27:35.240Z,8.93
2019-05-05T05:30:05.713Z,9.87
2019-05-05T05:32:35.886Z,8.83
2019-05-05T05:35:06.244Z,11.87
2019-05-05T05:37:37.504Z,8.90
2019-05-05T05:40:14.489Z,8.17
2019-05-05T05:42:47.241Z,7.70
2019-05-05T05:45:45.615Z,8.53
2019-05-05T05:48:20.794Z,9.10
2019-05-05T05:51:04.227Z,8.97
2019-05-05T05:53:35.011Z,8.13
2019-05-05T05:56:05.116Z,10.00
2019-05-05T05:58:35.236Z,9.03
2019-05-05T06:01:05.143Z,8.27
2019-05-05T06:03:37.480Z,7.50
2019-05-05T06:06:07.554Z,8.13
2019-05-05T06:08:38.483Z,7.33
2019-05-05T06:11:08.862Z,8.13
2019-05-05T06:13:38.980Z,7.77
2019-05-05T06:16:09.073Z,9.13
2019-05-05T06:18:38.957Z,8.93
2019-05-05T06:21:09.352Z,9.40
2019-05-05T06:23:39.761Z,7.90
2019-05-05T06:26:10.869Z,6.80
2019-05-05T06:28:40.692Z,7.43
2019-05-05T06:31:13.877Z,9.70
2019-05-05T06:33:43.887Z,7.50
2019-05-05T06:36:14.287Z,8.50
2019-05-05T06:38:44.632Z,7.97
2019-05-05T06:41:24.569Z,8.20
2019-05-05T06:44:24.625Z,9.83
2019-05-05T06:47:00.666Z,8.17
2019-05-05T06:49:31.290Z,8.47
2019-05-05T06:52:03.886Z,7.87
2019-05-05T06:54:34.859Z,9.77
2019-05-05T06:57:05.357Z,8.97
2019-05-05T06:59:35.128Z,9.47
2019-05-05T07:02:05.517Z,8.40
2019-05-05T07:04:36.098Z,8.10
2019-05-05T07:07:07.046Z,8.50
2019-05-05T07:09:37.051Z,7.60
2019-05-05T07:12:08.162Z,8.67
2019-05-05T07:14:38.227Z,9.67
2019-05-05T07:17:08.450Z,8.57
2019-05-05T07:19:38.648Z,9.33
2019-05-05T07:22:08.810Z,7.17
2019-05-05T07:24:38.703Z,8.27
2019-05-05T07:27:08.130Z,7.67
2019-05-05T07:29:39.804Z,8.70
2019-05-05T07:32:10.940Z,8.70
2019-05-05T07:34:55.212Z,8.27
2019-05-05T07:37:27.014Z,7.67
2019-05-05T07:39:57.209Z,8.37
2019-05-05T07:42:27.397Z,7.33
2019-05-05T07:44:57.999Z,8.30
2019-05-05T07:47:28.427Z,7.17
2019-05-05T07:49:58.770Z,7.57
2019-05-05T07:52:28.808Z,7.50
2019-05-05T07:54:59.032Z,7.73
2019-05-05T07:57:29.689Z,6.60
2019-05-05T07:59:59.734Z,6.27
2019-05-05T08:02:30.635Z,7.57
2019-05-05T08:05:00.925Z,5.53
2019-05-05T08:07:31.054Z,6.83
2019-05-05T08:10:01.082Z,6.17
2019-05-05T08:12:31.556Z,5.97
2019-05-05T08:15:04.166Z,7.40
2019-05-05T08:17:51.455Z,6.17
2019-05-05T08:20:40.712Z,6.97
2019-05-05T08:23:30.136Z,6.37
2019-05-05T08:26:19.764Z,6.30
2019-05-05T08:28:54.750Z,6.80
2019-05-05T08:31:44.349Z,6.17
2019-05-05T08:34:14.319Z,6.47
2019-05-05T08:36:47.274Z,5.67
2019-05-05T08:39:17.733Z,5.93
2019-05-05T08:41:50.292Z,7.10
2019-05-05T08:44:23.650Z,6.87
2019-05-05T08:46:56.131Z,5.00
2019-05-05T08:49:25.667Z,5.27
2019-05-05T08:51:58.524Z,5.00
2019-05-05T08:54:29.061Z,4.63
2019-05-05T08:56:59.654Z,5.17
2019-05-05T08:59:33.548Z,5.40
2019-05-05T09:02:04.481Z,4.70
2019-05-05T09:04:35.965Z,4.90
2019-05-05T09:07:06.225Z,5.57
2019-05-05T09:09:36.915Z,5.27
2019-05-05T09:12:06.569Z,6.53
2019-05-05T09:14:36.567Z,4.27
2019-05-05T09:17:06.774Z,4.90
2019-05-05T09:19:36.831Z,5.13
2019-05-05T09:22:08.780Z,5.43
2019-05-05T09:24:55.055Z,4.10
2019-05-05T09:27:37.153Z,3.70
2019-05-05T09:30:08.063Z,4.50
2019-05-05T09:32:40.417Z,4.00
2019-05-05T09:35:13.880Z,4.47
2019-05-05T09:37:44.391Z,4.87
2019-05-05T09:40:16.927Z,5.47
2019-05-05T09:42:48.260Z,5.10
2019-05-05T09:45:18.741Z,6.43
2019-05-05T09:47:49.232Z,3.70
2019-05-05T09:50:19.717Z,5.20
2019-05-05T09:52:49.896Z,3.47
2019-05-05T09:55:20.392Z,3.57
2019-05-05T09:57:50.655Z,4.13
2019-05-05T10:00:21.509Z,3.30
2019-05-05T10:02:51.825Z,3.50
2019-05-05T10:05:23.631Z,3.27
2019-05-05T10:07:54.472Z,4.77
2019-05-05T10:10:24.707Z,4.03
2019-05-05T10:12:55.115Z,4.23
2019-05-05T10:15:25.508Z,4.17
2019-05-05T10:17:56.091Z,4.80
2019-05-05T10:20:26.690Z,4.03
2019-05-05T10:22:57.486Z,3.30
2019-05-05T10:25:37.918Z,3.33
2019-05-05T10:28:08.183Z,3.53
2019-05-05T10:30:38.359Z,3.00
2019-05-05T10:33:08.480Z,4.90
2019-05-05T10:35:38.962Z,3.83
2019-05-05T10:38:10.051Z,4.37
2019-05-05T10:40:39.625Z,4.20
2019-05-05T10:43:10.391Z,3.80
2019-05-05T10:45:40.924Z,4.77
2019-05-05T10:48:11.307Z,4.23
2019-05-05T10:50:44.265Z,3.40
2019-05-05T10:53:14.226Z,2.97
2019-05-05T10:55:45.124Z,3.30
2019-05-05T10:58:15.883Z,3.40
2019-05-05T11:00:56.948Z,4.37
2019-05-05T11:03:27.447Z,3.17
2019-05-05T11:05:57.486Z,4.60
2019-05-05T11:08:30.666Z,5.07
2019-05-05T11:11:00.414Z,5.10
2019-05-05T11:13:30.615Z,4.27
2019-05-05T11:16:01.334Z,4.87
2019-05-05T11:18:31.611Z,4.87
2019-05-05T11:21:03.914Z,3.53
2019-05-05T11:23:35.054Z,4.90
2019-05-05T11:26:06.645Z,3.50
2019-05-05T11:28:36.982Z,4.20
2019-05-05T11:31:08.024Z,3.17
2019-05-05T11:33:55.956Z,3.80
2019-05-05T11:36:30.517Z,4.37
2019-05-05T11:39:00.140Z,3.73
2019-05-05T11:41:29.934Z,4.27
2019-05-05T11:43:59.964Z,4.20
2019-05-05T11:46:30.473Z,3.47
2019-05-05T11:49:00.666Z,3.93
2019-05-05T11:51:30.535Z,3.10
2019-05-05T11:54:00.546Z,3.00
2019-05-05T11:56:31.170Z,3.50
2019-05-05T11:59:01.392Z,2.40
2019-05-05T12:01:31.817Z,2.40
2019-05-05T12:04:04.174Z,3.27
2019-05-05T12:06:35.131Z,2.60
2019-05-05T12:09:09.731Z,3.20
2019-05-05T12:11:39.874Z,3.07
2019-05-05T12:14:11.609Z,2.67
2019-05-05T12:16:43.793Z,2.63
2019-05-05T12:19:13.858Z,2.50
2019-05-05T12:21:44.311Z,2.47
2019-05-05T12:24:19.981Z,2.17
2019-05-05T12:27:03.694Z,2.37
2019-05-05T12:29:43.645Z,2.47
2019-05-05T12:32:14.883Z,2.53
2019-05-05T12:34:45.174Z,2.80
2019-05-05T12:37:16.321Z,2.63
2019-05-05T12:39:46.945Z,2.80
2019-05-05T12:42:16.561Z,2.70
2019-05-05T12:45:05.033Z,2.07
2019-05-05T12:47:54.208Z,2.10
2019-05-05T12:50:24.679Z,2.60
2019-05-05T12:52:55.376Z,1.87
2019-05-05T12:55:39.107Z,2.17
2019-05-05T12:57:58.746Z,2.20
2019-05-05T13:00:29.219Z,1.73
2019-05-05T13:02:59.605Z,2.47
2019-05-05T13:05:29.826Z,1.70
2019-05-05T13:08:00.319Z,2.30
2019-05-05T13:10:33.683Z,1.77
2019-05-05T13:13:05.061Z,2.80
2019-05-05T13:15:35.742Z,3.30
2019-05-05T13:18:05.570Z,1.80
2019-05-05T13:20:44.386Z,2.33
2019-05-05T13:23:34.045Z,1.77
2019-05-05T13:26:14.538Z,1.50
2019-05-05T13:28:44.963Z,1.77
2019-05-05T13:31:16.077Z,2.87
2019-05-05T13:33:46.236Z,1.93
2019-05-05T13:36:16.270Z,1.60
2019-05-05T13:38:46.606Z,1.40
2019-05-05T13:41:17.317Z,2.83
2019-05-05T13:43:47.541Z,1.97
2019-05-05T13:46:24.854Z,1.83
2019-05-05T13:48:59.054Z,3.10
2019-05-05T13:51:31.844Z,1.83
2019-05-05T13:54:02.392Z,1.77
2019-05-05T13:56:33.590Z,2.10
2019-05-05T13:59:04.451Z,2.07
2019-05-05T14:01:34.925Z,2.13
2019-05-05T14:04:04.697Z,1.40
2019-05-05T14:06:37.934Z,1.60
2019-05-05T14:09:08.934Z,1.80
2019-05-05T14:11:40.773Z,3.03
2019-05-05T14:14:13.787Z,1.73
2019-05-05T14:16:44.646Z,2.97
2019-05-05T14:19:15.854Z,1.57
2019-05-05T14:21:46.024Z,3.17
2019-05-05T14:24:54.468Z,1.63
2019-05-05T14:27:24.162Z,1.97
2019-05-05T14:30:15.816Z,1.40
2019-05-05T14:32:46.321Z,2.13
2019-05-05T14:35:23.539Z,1.53
2019-05-05T14:37:56.501Z,1.30
2019-05-05T14:40:27.008Z,1.87
2019-05-05T14:42:57.254Z,2.37
2019-05-05T14:45:28.505Z,1.50
2019-05-05T14:48:00.794Z,1.97
2019-05-05T14:50:31.284Z,1.40
2019-05-05T14:53:01.411Z,1.90
2019-05-05T14:55:33.619Z,1.90
2019-05-05T14:58:04.143Z,1.57
2019-05-05T15:00:34.396Z,2.77
2019-05-05T15:03:04.957Z,1.67
2019-05-05T15:05:40.709Z,1.43
2019-05-05T15:08:43.899Z,2.47
2019-05-05T15:11:30.974Z,1.50
2019-05-05T15:14:04.920Z,1.80
2019-05-05T15:16:34.687Z,1.30
2019-05-05T15:19:05.176Z,1.50
2019-05-05T15:21:35.221Z,2.20
2019-05-05T15:24:05.542Z,1.47
2019-05-05T15:26:48.846Z,1.50
2019-05-05T15:29:08.764Z,2.37
2019-05-05T15:31:41.076Z,1.77
2019-05-05T15:34:11.430Z,2.30
2019-05-05T15:36:43.974Z,2.33
2019-05-05T15:39:14.283Z,3.23
2019-05-05T15:41:44.625Z,2.60
2019-05-05T15:44:14.913Z,2.10
2019-05-05T15:46:45.835Z,1.30
2019-05-05T15:49:17.956Z,2.77
2019-05-05T15:51:48.401Z,1.90
2019-05-05T15:54:18.610Z,2.37
2019-05-05T15:57:01.834Z,3.13
2019-05-05T15:59:20.940Z,1.73
2019-05-05T16:01:51.467Z,1.37
2019-05-05T16:04:23.443Z,1.27
2019-05-05T16:06:54.985Z,2.93
2019-05-05T16:09:25.613Z,2.03
2019-05-05T16:11:56.656Z,1.80
2019-05-05T16:14:27.364Z,1.30
2019-05-05T16:17:14.681Z,1.27
2019-05-05T16:20:07.225Z,2.70
2019-05-05T16:23:05.799Z,2.30
2019-05-05T16:25:35.920Z,3.23
2019-05-05T16:28:05.789Z,2.20
2019-05-05T16:30:36.090Z,1.70
2019-05-05T16:33:06.137Z,1.50
2019-05-05T16:35:36.563Z,1.30
2019-05-05T16:38:06.500Z,2.73
2019-05-05T16:40:36.603Z,2.00
2019-05-05T16:43:07.101Z,0.90
2019-05-05T16:45:38.151Z,1.50
2019-05-05T16:48:08.816Z,2.83
2019-05-05T16:50:39.676Z,1.60
2019-05-05T16:53:11.608Z,2.10
2019-05-05T16:55:53.743Z,3.53
2019-05-05T16:58:24.109Z,1.50
2019-05-05T17:00:54.770Z,1.57
2019-05-05T17:03:25.276Z,1.53
2019-05-05T17:05:58.088Z,1.43
2019-05-05T17:08:27.670Z,1.50
2019-05-05T17:10:57.764Z,2.27
2019-05-05T17:13:34.793Z,1.40
2019-05-05T17:16:22.410Z,1.47
2019-05-05T17:19:14.017Z,1.40
2019-05-05T17:22:01.588Z,1.63
2019-05-05T17:24:32.149Z,1.73
2019-05-05T17:27:03.574Z,2.40
2019-05-05T17:29:34.548Z,4.27
2019-05-05T17:32:04.938Z,1.97
2019-05-05T17:34:35.501Z,2.10
2019-05-05T17:37:05.777Z,3.27
2019-05-05T17:39:39.798Z,2.33
2019-05-05T17:42:28.789Z,2.13
2019-05-05T17:45:17.067Z,3.17
2019-05-05T17:47:55.994Z,1.93
2019-05-05T17:50:45.453Z,1.87
2019-05-05T17:53:34.502Z,2.90
2019-05-05T17:56:06.055Z,2.13
2019-05-05T17:58:37.455Z,4.20
2019-05-05T18:01:09.691Z,3.07
2019-05-05T18:03:39.886Z,2.33
2019-05-05T18:06:18.266Z,2.37
2019-05-05T18:08:53.781Z,1.63
2019-05-05T18:11:28.952Z,1.90
2019-05-05T18:14:03.948Z,2.00
2019-05-05T18:16:34.163Z,2.27
2019-05-05T18:19:04.641Z,2.57
2019-05-05T18:21:34.916Z,3.07
2019-05-05T18:24:04.458Z,1.93
2019-05-05T18:26:34.580Z,2.37
2019-05-05T18:29:05.232Z,3.07
2019-05-05T18:31:35.416Z,2.77
2019-05-05T18:34:05.463Z,1.87
2019-05-05T18:36:35.919Z,2.87
2019-05-05T18:39:07.864Z,2.97
2019-05-05T18:41:46.886Z,2.47
2019-05-05T18:44:21.266Z,2.57
2019-05-05T18:47:29.365Z,3.47
2019-05-05T18:49:59.701Z,3.20
2019-05-05T18:52:30.338Z,3.87
2019-05-05T18:55:00.504Z,2.47
2019-05-05T18:57:31.485Z,3.43
2019-05-05T19:00:03.646Z,4.03
2019-05-05T19:02:57.916Z,4.10
2019-05-05T19:05:35.226Z,3.90
2019-05-05T19:08:15.391Z,4.53
2019-05-05T19:10:45.634Z,3.50
2019-05-05T19:13:15.819Z,3.13
2019-05-05T19:15:46.220Z,3.53
2019-05-05T19:18:16.408Z,2.33
2019-05-05T19:20:55.631Z,3.13
2019-05-05T19:23:25.963Z,2.63
2019-05-05T19:25:56.257Z,2.60
2019-05-05T19:28:26.529Z,2.70
2019-05-05T19:30:56.751Z,2.40
2019-05-05T19:33:26.986Z,4.10
2019-05-05T19:35:57.346Z,2.50
2019-05-05T19:38:28.066Z,3.37
2019-05-05T19:40:58.887Z,3.47
2019-05-05T19:43:29.139Z,4.03
2019-05-05T19:45:59.516Z,3.23
2019-05-05T19:48:30.759Z,3.80
2019-05-05T19:51:04.762Z,3.40
2019-05-05T19:53:35.598Z,2.30
2019-05-05T19:56:05.826Z,3.33
2019-05-05T19:58:37.467Z,2.90
2019-05-05T20:01:07.067Z,4.03
2019-05-05T20:03:39.016Z,3.40
2019-05-05T20:06:09.327Z,2.90
2019-05-05T20:08:41.424Z,2.97
2019-05-05T20:11:14.170Z,3.03
2019-05-05T20:13:44.555Z,2.60
2019-05-05T20:16:51.994Z,2.83
2019-05-05T20:19:22.323Z,5.07
2019-05-05T20:21:54.375Z,2.97
2019-05-05T20:24:25.264Z,2.47
2019-05-05T20:26:55.517Z,2.93
2019-05-05T20:29:25.867Z,5.10
2019-05-05T20:31:56.709Z,2.30
2019-05-05T20:34:35.336Z,3.80
2019-05-05T20:37:14.145Z,2.60
2019-05-05T20:39:44.468Z,3.40
2019-05-05T20:42:15.621Z,3.03
2019-05-05T20:44:45.983Z,2.40
2019-05-05T20:47:16.104Z,3.87
2019-05-05T20:49:46.584Z,6.23
2019-05-05T20:52:16.946Z,3.07
2019-05-05T20:54:47.040Z,2.80
2019-05-05T20:57:17.487Z,3.07
2019-05-05T20:59:48.309Z,2.97
2019-05-05T21:02:18.823Z,3.50
2019-05-05T21:04:48.915Z,3.47
2019-05-05T21:07:23.524Z,2.33
2019-05-05T21:09:51.651Z,4.00
2019-05-05T21:12:21.677Z,2.17
2019-05-05T21:14:53.761Z,2.60
2019-05-05T21:17:24.325Z,2.73
2019-05-05T21:19:55.311Z,2.60
2019-05-05T21:22:44.388Z,2.30
2019-05-05T21:25:33.600Z,3.13
2019-05-05T21:28:03.883Z,4.60
2019-05-05T21:30:35.330Z,4.53
2019-05-05T21:33:05.551Z,4.63
2019-05-05T21:35:35.878Z,3.07
2019-05-05T21:38:05.949Z,3.13
2019-05-05T21:40:36.399Z,3.27
2019-05-05T21:43:06.498Z,2.57
2019-05-05T21:45:37.464Z,6.70
2019-05-05T21:48:07.520Z,5.63
2019-05-05T21:50:42.844Z,3.83
2019-05-05T21:53:21.532Z,6.13
2019-05-05T21:56:19.945Z,5.63
2019-05-05T21:58:50.015Z,4.73
2019-05-05T22:01:21.871Z,5.53
2019-05-05T22:03:54.410Z,3.87
2019-05-05T22:06:25.371Z,3.30
2019-05-05T22:08:55.559Z,3.47
2019-05-05T22:11:25.809Z,2.70
2019-05-05T22:13:55.978Z,4.17
2019-05-05T22:16:26.118Z,4.37
2019-05-05T22:18:56.686Z,4.77
2019-05-05T22:21:35.911Z,4.50
2019-05-05T22:24:16.307Z,3.17
2019-05-05T22:26:47.107Z,5.13
2019-05-05T22:29:17.935Z,3.93
2019-05-05T22:31:48.570Z,5.73
2019-05-05T22:34:19.144Z,3.50
2019-05-05T22:36:49.868Z,3.27
2019-05-05T22:39:21.190Z,4.07
2019-05-05T22:41:54.131Z,3.50
2019-05-05T22:44:24.427Z,6.03
2019-05-05T22:46:54.672Z,4.97
2019-05-05T22:49:24.941Z,4.70
2019-05-05T22:51:55.464Z,4.30
2019-05-05T22:54:25.883Z,4.80
2019-05-05T22:56:55.971Z,5.53
2019-05-05T22:59:26.729Z,8.20
2019-05-05T23:01:57.528Z,5.43
2019-05-05T23:04:44.066Z,5.07
2019-05-05T23:07:24.072Z,5.00
2019-05-05T23:09:55.281Z,4.77
2019-05-05T23:12:25.502Z,4.30
2019-05-05T23:14:56.611Z,7.23
2019-05-05T23:17:54.871Z,5.00
2019-05-05T23:21:07.469Z,6.50
2019-05-05T23:23:59.562Z,10.20
2019-05-05T23:26:31.607Z,15.30
2019-05-05T23:29:02.246Z,12.30
2019-05-05T23:31:33.583Z,9.00
2019-05-05T23:34:04.079Z,5.17
2019-05-05T23:36:34.218Z,5.80
2019-05-05T23:39:06.553Z,4.47
2019-05-05T23:41:37.011Z,3.93
2019-05-05T23:44:07.304Z,7.37
2019-05-05T23:46:37.392Z,7.47
2019-05-05T23:49:07.831Z,8.40
2019-05-05T23:51:37.928Z,5.40
2019-05-05T23:54:08.915Z,4.90
2019-05-05T23:56:39.155Z,4.87
2019-05-05T23:59:13.552Z,5.23
